Terminal Aerodrome Forecast
Issued by NWS

Home | Current Version | Previous Version | Text Only | Print | Product List | Glossary Off
Versions: 1 2 3 4 5 6 7 8 9 10 11 12 13

000
FTUS43 KICT 182300
TAFHUT
TAF
KHUT 182331Z 1900/1924 13007KT P6SM BKN200
     FM190500 21010KT P6SM SKC
     FM191900 19014KT P6SM SCT250=

USA.gov is the U.S. government's official web portal to all federal, state and local government web resources and services.